Capitol Logistics 337


KAFW
Fort Worth Alliance Airport
Fort Worth, Texas, US
KMIA
Miami International Airport
Miami, Florida, US

Activity Log

Date Flight Route Aircraft Duration
02/16/2019 CPX337 KUSSO5 ZALEA SWB HRV Q105 BLVNS Y290 BAGGS SSCOT5 B763 2h 33m

Route Details

Aircraft Information
Primary: Boeing 767-300BDSF
Backup: Not Available
Route Data
Distance: 989nm
Sched. Duration: 3h 00m
Avg. Duration: 2h 33m (-67m)
Times Flown: 1
Recm'd Route: KUSSO5 ZALEA SWB HRV Q105 BLVNS Y290 BAGGS SSCOT5
Planned Altitude: 37,000ft
Origin Wx: KAFW 280053Z 36009KT 10SM FEW300 05/M03 A3042 RMK AO2 SLP312 T00501028
Dest. Wx: KMIA 280053Z COR 26006KT 10SM CLR 25/19 A3008 RMK AO2 SLP184 T02500194 $
Notes:

Financial History
Total Freight: 102,350lbs
Average Load: 102,350lbs/flt
Fuel Used: 27,669lbs
Avg. Fuel Used: 27,669lbs/flt
Fuel Expense: $22,412
Avg. Fuel Expense: $22,412
Avg. Fuel Cost: $0.81/lbs
Total Gross Income: $132,032
Pilot Pay: $229
Total Expenses: $14,311
Total Revenue: $94,699
Average Revenue: $132,031.50